Time;durP1;ratioP1;P1;durP2;ratioP2;P2;SDS_P1;SDS_P2;PMS_P1;PMS_P2;Temp;Humidity;BMP_temperature;BMP_pressure;BME280_temperature;BME280_humidity;BME280_pressure;Samples;Min_cycle;Max_cycle;Signal;HPM_P1;HPM_P2
2022/10/06 00:02:22;;;;;;;;;;;;;;;;;;4933698;28;19929;-58
2022/10/06 00:04:48;;;;;;;;;;;;;;;;;;4933201;28;19933;-58
2022/10/06 00:07:16;;;;;;;;;;;;;;;;;;4950784;28;20021;-58
2022/10/06 00:09:41;;;;;;;;;;;;;;;;;;4934267;28;19934;-59
2022/10/06 00:12:06;;;;;;;;;;;;;;;;;;4933735;28;19961;-58
2022/10/06 00:14:34;;;;;;;;;;;;;;;;;;4933087;28;20008;-59
2022/10/06 00:16:59;;;;;;;;;;;;;;;;;;4949560;28;21096;-59
2022/10/06 00:19:24;;;;;;;;;;;;;;;;;;4950564;28;19918;-60
2022/10/06 00:21:51;;;;;;;;;;;;;;;;;;4948962;28;19980;-59
2022/10/06 00:24:18;;;;;;;;;;;;;;;;;;4925346;28;20020;-60
2022/10/06 00:26:46;;;;;;;;;;;;;;;;;;4949318;28;19923;-61
2022/10/06 00:29:12;;;;;;;;;;;;;;;;;;4950421;28;19921;-60
2022/10/06 00:31:42;;;;;;;;;;;;;;;;;;4946526;28;20036;-59
2022/10/06 00:34:07;;;;;;;;;;;;;;;;;;4949979;28;20016;-60
2022/10/06 00:36:33;;;;;;;;;;;;;;;;;;4950139;28;21156;-62
2022/10/06 00:39:01;;;;;;;;;;;;;;;;;;4948083;28;19922;-60
2022/10/06 00:41:29;;;;;;;;;;;;;;;;;;4950310;28;19921;-60
2022/10/06 00:43:55;;;;;;;;;;;;;;;;;;4948129;28;19929;-60
2022/10/06 00:46:21;;;;;;;;;;;;;;;;;;4947038;28;19957;-60
2022/10/06 00:48:47;;;;;;;;;;;;;;;;;;4929869;28;19925;-60
2022/10/06 00:51:13;;;;;;;;;;;;;;;;;;4928503;28;19922;-59
2022/10/06 00:53:40;;;;;;;;;;;;;;;;;;4946648;28;20400;-60
2022/10/06 00:56:08;;;;;;;;;;;;;;;;;;4917491;28;19922;-59
2022/10/06 00:58:33;;;;;;;;;;;;;;;;;;4934979;28;20558;-59
2022/10/06 01:00:59;;;;;;;;;;;;;;;;;;4932999;28;19917;-59
2022/10/06 01:03:27;;;;;;;;;;;;;;;;;;4934445;28;20021;-60
2022/10/06 01:05:52;;;;;;;;;;;;;;;;;;4950465;28;19922;-59
2022/10/06 01:08:20;;;;;;;;;;;;;;;;;;4934863;28;19926;-61
2022/10/06 01:10:45;;;;;;;;;;;;;;;;;;4913502;28;19988;-59
2022/10/06 01:13:12;;;;;;;;;;;;;;;;;;4918091;28;19917;-63
2022/10/06 01:15:38;;;;;;;;;;;;;;;;;;4950736;28;19941;-60
2022/10/06 01:18:03;;;;;;;;;;;;;;;;;;4946286;28;20116;-60
2022/10/06 01:20:28;;;;;;;;;;;;;;;;;;4917493;28;19996;-60
2022/10/06 01:22:54;;;;;;;;;;;;;;;;;;4948728;28;19957;-59
2022/10/06 01:25:22;;;;;;;;;;;;;;;;;;4939525;28;19956;-60
2022/10/06 01:27:53;;;;;;;;;;;;;;;;;;4933973;28;19922;-60
2022/10/06 01:30:19;;;;;;;;;;;;;;;;;;4926402;28;19933;-59
2022/10/06 01:32:46;;;;;;;;;;;;;;;;;;4933606;28;19921;-61
2022/10/06 01:35:12;;;;;;;;;;;;;;;;;;4917971;28;19922;-61
2022/10/06 01:37:39;;;;;;;;;;;;;;;;;;4952842;28;20519;-60
2022/10/06 01:40:07;;;;;;;;;;;;;;;;;;4935867;28;20958;-60
2022/10/06 01:42:34;;;;;;;;;;;;;;;;;;4948938;28;19921;-60
2022/10/06 01:45:00;;;;;;;;;;;;;;;;;;4954237;28;19962;-61
2022/10/06 01:47:30;;;;;;;;;;;;;;;;;;4933248;28;19922;-60
2022/10/06 01:49:56;;;;;;;;;;;;;;;;;;4951106;28;20016;-61
2022/10/06 01:52:21;;;;;;;;;;;;;;;;;;4935251;28;19934;-59
2022/10/06 01:54:50;;;;;;;;;;;;;;;;;;4949612;28;19984;-61
2022/10/06 01:57:15;;;;;;;;;;;;;;;;;;4934109;28;19922;-61
2022/10/06 01:59:45;;;;;;;;;;;;;;;;;;4921807;28;19922;-59
2022/10/06 02:02:10;;;;;;;;;;;;;;;;;;4933258;28;20077;-60
2022/10/06 02:04:38;;;;;;;;;;;;;;;;;;4949206;28;22082;-60
2022/10/06 02:07:04;;;;;;;;;;;;;;;;;;4954291;28;20048;-59
2022/10/06 02:09:31;;;;;;;;;;;;;;;;;;4953480;28;20013;-60
2022/10/06 02:12:03;;;;;;;;;;;;;;;;;;4939066;28;19929;-59
2022/10/06 02:14:33;;;;;;;;;;;;;;;;;;4938632;28;19922;-60
2022/10/06 02:17:03;;;;;;;;;;;;;;;;;;4950510;28;19922;-60
2022/10/06 02:19:31;;;;;;;;;;;;;;;;;;4952657;28;20012;-59
2022/10/06 02:21:57;;;;;;;;;;;;;;;;;;4953568;28;20094;-60
2022/10/06 02:24:24;;;;;;;;;;;;;;;;;;4950842;28;20413;-61
2022/10/06 02:26:52;;;;;;;;;;;;;;;;;;4951362;28;19934;-60
2022/10/06 02:30:00;;;;;;;;;;;;;;;;;;4947670;28;19933;-62
2022/10/06 02:32:06;;;;;;;;;;;;;;;;;;4939461;28;19922;-60
2022/10/06 02:34:35;;;;;;;;;;;;;;;;;;4952461;28;19922;-60
2022/10/06 02:37:00;;;;;;;;;;;;;;;;;;4934902;28;19955;-61
2022/10/06 02:39:25;;;;;;;;;;;;;;;;;;4934833;28;19930;-61
2022/10/06 02:41:55;;;;;;;;;;;;;;;;;;4950301;28;19957;-60
2022/10/06 02:44:23;;;;;;;;;;;;;;;;;;4952449;28;19918;-60
2022/10/06 02:46:52;;;;;;;;;;;;;;;;;;4917321;28;19926;-60
2022/10/06 02:49:20;;;;;;;;;;;;;;;;;;4951820;28;19926;-60
2022/10/06 02:51:48;;;;;;;;;;;;;;;;;;4951481;28;19985;-61
2022/10/06 02:54:16;;;;;;;;;;;;;;;;;;4932583;28;21961;-61
2022/10/06 02:56:49;;;;;;;;;;;;;;;;;;4950494;28;19961;-61
2022/10/06 02:59:16;;;;;;;;;;;;;;;;;;4916228;28;19922;-59
2022/10/06 03:01:42;;;;;;;;;;;;;;;;;;4949121;28;19953;-61
2022/10/06 03:04:10;;;;;;;;;;;;;;;;;;4950689;28;20001;-62
2022/10/06 03:06:41;;;;;;;;;;;;;;;;;;4921255;28;19922;-61
2022/10/06 03:09:06;;;;;;;;;;;;;;;;;;4947780;28;19926;-61
2022/10/06 03:11:33;;;;;;;;;;;;;;;;;;4915536;28;19928;-61
2022/10/06 03:14:01;;;;;;;;;;;;;;;;;;4918431;28;19922;-61
2022/10/06 03:16:26;;;;;;;;;;;;;;;;;;4933940;28;19932;-61
2022/10/06 03:18:52;;;;;;;;;;;;;;;;;;4934870;28;19926;-62
2022/10/06 03:21:17;;;;;;;;;;;;;;;;;;4949721;28;19961;-61
2022/10/06 03:23:56;;;;;;;;;;;;;;;;;;4933106;28;20396;-60
2022/10/06 03:26:23;;;;;;;;;;;;;;;;;;4949996;28;19926;-60
2022/10/06 03:28:51;;;;;;;;;;;;;;;;;;4916449;28;20009;-61
2022/10/06 03:31:19;;;;;;;;;;;;;;;;;;4930243;28;19922;-62
2022/10/06 03:33:44;;;;;;;;;;;;;;;;;;4949044;28;19953;-61
2022/10/06 03:36:09;;;;;;;;;;;;;;;;;;4934242;28;19925;-61
2022/10/06 03:38:37;;;;;;;;;;;;;;;;;;4949939;28;20931;-61
2022/10/06 03:41:05;;;;;;;;;;;;;;;;;;4932763;28;19922;-61
2022/10/06 03:43:32;;;;;;;;;;;;;;;;;;4932833;28;19922;-61
2022/10/06 03:45:59;;;;;;;;;;;;;;;;;;4933788;28;20002;-61
2022/10/06 03:48:24;;;;;;;;;;;;;;;;;;4915147;28;19937;-61
2022/10/06 03:50:55;;;;;;;;;;;;;;;;;;4931707;28;19965;-60
2022/10/06 03:53:24;;;;;;;;;;;;;;;;;;4930937;28;19929;-60
2022/10/06 03:55:52;;;;;;;;;;;;;;;;;;4949241;28;19925;-61
2022/10/06 04:01:38;;;;;;;;;;;;;;;;;;4944636;28;20394;-61
2022/10/06 04:07:20;;;;;;;;;;;;;;;;;;4947973;28;19981;-61
2022/10/06 04:09:45;;;;;;;;;;;;;;;;;;4948504;28;19933;-61
2022/10/06 04:12:10;;;;;;;;;;;;;;;;;;4932638;28;19922;-61
2022/10/06 04:14:36;;;;;;;;;;;;;;;;;;4931095;28;20005;-60
2022/10/06 04:17:01;;;;;;;;;;;;;;;;;;4935889;28;19929;-61
2022/10/06 04:19:29;;;;;;;;;;;;;;;;;;4915847;28;19969;-60
2022/10/06 04:21:54;;;;;;;;;;;;;;;;;;4932822;28;19952;-60
2022/10/06 04:24:19;;;;;;;;;;;;;;;;;;4917175;28;20413;-61
2022/10/06 04:26:48;;;;;;;;;;;;;;;;;;4952302;28;19970;-61
2022/10/06 04:29:16;;;;;;;;;;;;;;;;;;4940734;28;20806;-61
2022/10/06 04:31:41;;;;;;;;;;;;;;;;;;4955732;28;19922;-61
2022/10/06 04:34:07;;;;;;;;;;;;;;;;;;4934436;28;19948;-61
2022/10/06 04:36:33;;;;;;;;;;;;;;;;;;4939535;28;19999;-61
2022/10/06 04:39:02;;;;;;;;;;;;;;;;;;4955470;28;21862;-61
2022/10/06 04:41:27;;;;;;;;;;;;;;;;;;4940604;28;19957;-62
2022/10/06 04:43:52;;;;;;;;;;;;;;;;;;4938294;28;21933;-61
2022/10/06 04:46:17;;;;;;;;;;;;;;;;;;4955622;28;19926;-62
2022/10/06 04:48:45;;;;;;;;;;;;;;;;;;4923037;28;19934;-62
2022/10/06 04:51:13;;;;;;;;;;;;;;;;;;4940632;28;20342;-64
2022/10/06 04:53:38;;;;;;;;;;;;;;;;;;4938960;28;19937;-61
2022/10/06 04:56:04;;;;;;;;;;;;;;;;;;4934187;28;19918;-63
2022/10/06 04:58:29;;;;;;;;;;;;;;;;;;4930101;28;19942;-62
2022/10/06 05:00:54;;;;;;;;;;;;;;;;;;4933772;28;20412;-63
2022/10/06 05:03:24;;;;;;;;;;;;;;;;;;4900521;28;19926;-62
2022/10/06 05:05:50;;;;;;;;;;;;;;;;;;4911953;28;19924;-62
2022/10/06 05:08:20;;;;;;;;;;;;;;;;;;4913600;28;19927;-62
2022/10/06 05:10:48;;;;;;;;;;;;;;;;;;4914382;28;21708;-61
2022/10/06 05:13:13;;;;;;;;;;;;;;;;;;4935870;28;19985;-61
2022/10/06 05:15:43;;;;;;;;;;;;;;;;;;4892820;28;19918;-62
2022/10/06 05:18:08;;;;;;;;;;;;;;;;;;4921391;28;19918;-63
2022/10/06 05:20:33;;;;;;;;;;;;;;;;;;4936980;28;19923;-61
2022/10/06 05:22:59;;;;;;;;;;;;;;;;;;4938965;28;19918;-61
2022/10/06 05:25:27;;;;;;;;;;;;;;;;;;4920292;28;19925;-61
2022/10/06 05:27:52;;;;;;;;;;;;;;;;;;4938283;28;19922;-61
2022/10/06 05:30:18;;;;;;;;;;;;;;;;;;4938877;28;19941;-63
2022/10/06 05:32:49;;;;;;;;;;;;;;;;;;4922043;28;19922;-63
2022/10/06 05:35:16;;;;;;;;;;;;;;;;;;4921584;28;19923;-61
2022/10/06 05:37:42;;;;;;;;;;;;;;;;;;4939642;28;19933;-62
2022/10/06 05:40:07;;;;;;;;;;;;;;;;;;4905731;28;19923;-62
2022/10/06 05:42:32;;;;;;;;;;;;;;;;;;4921349;28;20070;-61
2022/10/06 05:44:58;;;;;;;;;;;;;;;;;;4918538;28;20052;-62
2022/10/06 05:47:23;;;;;;;;;;;;;;;;;;4921179;28;19949;-61
2022/10/06 05:49:48;;;;;;;;;;;;;;;;;;4939504;28;19934;-62
2022/10/06 05:52:16;;;;;;;;;;;;;;;;;;4917372;28;19988;-62
2022/10/06 05:54:44;;;;;;;;;;;;;;;;;;4959474;28;20004;-62
2022/10/06 05:57:09;;;;;;;;;;;;;;;;;;4946035;28;20472;-63
2022/10/06 05:59:34;;;;;;;;;;;;;;;;;;4942605;28;20390;-62
2022/10/06 06:01:59;;;;;;;;;;;;;;;;;;4931257;28;19966;-63
2022/10/06 06:04:25;;;;;;;;;;;;;;;;;;4956315;28;19964;-62
2022/10/06 06:06:50;;;;;;;;;;;;;;;;;;4928956;28;19917;-63
2022/10/06 06:09:18;;;;;;;;;;;;;;;;;;4946170;28;19926;-62
2022/10/06 06:17:47;;;;;;;;;;;;;;;;;;4958768;28;20983;-62
2022/10/06 06:20:13;;;;;;;;;;;;;;;;;;4947819;28;19922;-62
2022/10/06 06:22:38;;;;;;;;;;;;;;;;;;4922265;28;19922;-63
2022/10/06 06:25:06;;;;;;;;;;;;;;;;;;4954165;28;20255;-61
2022/10/06 06:27:34;;;;;;;;;;;;;;;;;;4942414;28;19922;-61
2022/10/06 06:30:02;;;;;;;;;;;;;;;;;;4939678;28;21934;-62
2022/10/06 06:35:44;;;;;;;;;;;;;;;;;;4955737;28;19973;-63
2022/10/06 06:38:10;;;;;;;;;;;;;;;;;;4957182;28;19922;-61
2022/10/06 06:40:37;;;;;;;;;;;;;;;;;;4957524;28;20264;-62
2022/10/06 06:43:05;;;;;;;;;;;;;;;;;;4953558;28;19922;-62
2022/10/06 06:45:30;;;;;;;;;;;;;;;;;;4925275;28;19922;-62
2022/10/06 06:47:55;;;;;;;;;;;;;;;;;;4936159;28;20301;-62
2022/10/06 06:50:21;;;;;;;;;;;;;;;;;;4957298;28;19995;-62
2022/10/06 06:52:47;;;;;;;;;;;;;;;;;;4922417;28;20031;-62
2022/10/06 06:55:12;;;;;;;;;;;;;;;;;;4954995;28;20039;-62
2022/10/06 06:57:38;;;;;;;;;;;;;;;;;;4924379;28;20342;-64
2022/10/06 07:00:06;;;;;;;;;;;;;;;;;;4937832;28;20480;-62
2022/10/06 07:02:32;;;;;;;;;;;;;;;;;;4942909;28;19918;-63
2022/10/06 07:05:00;;;;;;;;;;;;;;;;;;4954817;28;20020;-63
2022/10/06 07:07:25;;;;;;;;;;;;;;;;;;4939323;28;19918;-62
2022/10/06 07:09:51;;;;;;;;;;;;;;;;;;4956017;28;20032;-62
2022/10/06 07:12:19;;;;;;;;;;;;;;;;;;4956047;28;19956;-63
2022/10/06 07:25:47;;;;;;;;;;;;;;;;;;4953402;28;19928;-63
2022/10/06 07:28:15;;;;;;;;;;;;;;;;;;4937125;28;19918;-61
2022/10/06 07:30:43;;;;;;;;;;;;;;;;;;4950809;28;20464;-63
2022/10/06 07:33:11;;;;;;;;;;;;;;;;;;4924095;28;19922;-63
2022/10/06 07:35:38;;;;;;;;;;;;;;;;;;4939193;28;19922;-62
2022/10/06 07:38:06;;;;;;;;;;;;;;;;;;4949973;28;19922;-62
2022/10/06 07:40:32;;;;;;;;;;;;;;;;;;4951720;28;19922;-62
2022/10/06 07:42:57;;;;;;;;;;;;;;;;;;4952118;28;19918;-60
2022/10/06 07:45:39;;;;;;;;;;;;;;;;;;4959760;28;20521;-61
2022/10/06 07:48:07;;;;;;;;;;;;;;;;;;4940370;28;20014;-62
2022/10/06 07:50:33;;;;;;;;;;;;;;;;;;4925483;28;19985;-62
2022/10/06 07:53:08;;;;;;;;;;;;;;;;;;4958283;28;20013;-62
2022/10/06 07:55:35;;;;;;;;;;;;;;;;;;4942309;28;19972;-61
2022/10/06 07:58:03;;;;;;;;;;;;;;;;;;4961365;28;20398;-61
2022/10/06 08:00:31;;;;;;;;;;;;;;;;;;4951790;28;19917;-64
2022/10/06 08:02:57;;;;;;;;;;;;;;;;;;4928484;28;19926;-63
2022/10/06 08:05:22;;;;;;;;;;;;;;;;;;4960810;28;19922;-63
2022/10/06 08:07:48;;;;;;;;;;;;;;;;;;4937523;28;19926;-63
2022/10/06 08:10:17;;;;;;;;;;;;;;;;;;4960953;28;19929;-64
2022/10/06 08:12:42;;;;;;;;;;;;;;;;;;4943129;28;19921;-61
2022/10/06 08:15:11;;;;;;;;;;;;;;;;;;4923501;28;19929;-61
2022/10/06 08:17:37;;;;;;;;;;;;;;;;;;4919973;28;19969;-62
2022/10/06 08:20:03;;;;;;;;;;;;;;;;;;4942773;28;20005;-63
2022/10/06 08:22:29;;;;;;;;;;;;;;;;;;4942574;28;19952;-63
2022/10/06 08:24:54;;;;;;;;;;;;;;;;;;4959586;28;19929;-62
2022/10/06 08:27:20;;;;;;;;;;;;;;;;;;4960730;28;19926;-61
2022/10/06 08:29:45;;;;;;;;;;;;;;;;;;4961681;28;19926;-62
2022/10/06 08:32:10;;;;;;;;;;;;;;;;;;4959315;28;19946;-61
2022/10/06 08:34:38;;;;;;;;;;;;;;;;;;4961446;28;20013;-62
2022/10/06 08:37:03;;;;;;;;;;;;;;;;;;4960539;28;20106;-64
2022/10/06 08:39:29;;;;;;;;;;;;;;;;;;4961494;28;20466;-62
2022/10/06 08:41:55;;;;;;;;;;;;;;;;;;4958606;28;19949;-63
2022/10/06 08:44:23;;;;;;;;;;;;;;;;;;4941994;28;19917;-65
2022/10/06 08:46:48;;;;;;;;;;;;;;;;;;4942297;28;19922;-61
2022/10/06 08:49:14;;;;;;;;;;;;;;;;;;4944394;28;19969;-62
2022/10/06 08:51:42;;;;;;;;;;;;;;;;;;4936898;28;19922;-63
2022/10/06 08:54:09;;;;;;;;;;;;;;;;;;4928245;28;20421;-61
2022/10/06 08:56:37;;;;;;;;;;;;;;;;;;4942825;28;19974;-65
2022/10/06 08:59:04;;;;;;;;;;;;;;;;;;4960569;28;20876;-64
2022/10/06 09:01:32;;;;;;;;;;;;;;;;;;4960072;28;19917;-62
2022/10/06 09:04:00;;;;;;;;;;;;;;;;;;4960119;28;21164;-62
2022/10/06 09:06:25;;;;;;;;;;;;;;;;;;4945708;28;19921;-62
2022/10/06 09:08:52;;;;;;;;;;;;;;;;;;4941340;28;19941;-62
2022/10/06 09:11:19;;;;;;;;;;;;;;;;;;4960334;28;19949;-63
2022/10/06 09:13:52;;;;;;;;;;;;;;;;;;4941004;28;19925;-60
2022/10/06 09:16:17;;;;;;;;;;;;;;;;;;4959296;28;19997;-63
2022/10/06 09:18:42;;;;;;;;;;;;;;;;;;4941542;28;19926;-62
2022/10/06 09:21:10;;;;;;;;;;;;;;;;;;4940757;28;20012;-61
2022/10/06 09:23:50;;;;;;;;;;;;;;;;;;4922054;28;19937;-63
2022/10/06 09:26:16;;;;;;;;;;;;;;;;;;4956975;28;19930;-63
2022/10/06 09:28:44;;;;;;;;;;;;;;;;;;4959716;28;19961;-64
2022/10/06 09:31:13;;;;;;;;;;;;;;;;;;4953768;28;20099;-63
2022/10/06 09:33:38;;;;;;;;;;;;;;;;;;4933026;28;19926;-61
2022/10/06 09:36:08;;;;;;;;;;;;;;;;;;4946292;28;20000;-61
2022/10/06 09:38:33;;;;;;;;;;;;;;;;;;4932064;28;20021;-62
2022/10/06 09:41:01;;;;;;;;;;;;;;;;;;4926633;28;19933;-62
2022/10/06 09:43:29;;;;;;;;;;;;;;;;;;4946873;28;19922;-63
2022/10/06 09:45:55;;;;;;;;;;;;;;;;;;4934133;28;19928;-63
2022/10/06 09:48:21;;;;;;;;;;;;;;;;;;4918827;28;20031;-65
2022/10/06 09:50:46;;;;;;;;;;;;;;;;;;4924157;28;20529;-63
2022/10/06 09:53:12;;;;;;;;;;;;;;;;;;4944692;28;19930;-63
2022/10/06 09:55:40;;;;;;;;;;;;;;;;;;4928796;28;19921;-67
2022/10/06 09:58:05;;;;;;;;;;;;;;;;;;4928392;28;21976;-63
2022/10/06 10:00:34;;;;;;;;;;;;;;;;;;4934868;28;19922;-63
2022/10/06 10:02:59;;;;;;;;;;;;;;;;;;4930657;28;19977;-64
2022/10/06 10:05:28;;;;;;;;;;;;;;;;;;4951720;28;19922;-65
2022/10/06 10:07:53;;;;;;;;;;;;;;;;;;4937288;28;19946;-66
2022/10/06 10:10:19;;;;;;;;;;;;;;;;;;4945637;28;20548;-64
2022/10/06 10:12:45;;;;;;;;;;;;;;;;;;4953135;28;19922;-63
2022/10/06 10:15:11;;;;;;;;;;;;;;;;;;4933027;28;20038;-64
2022/10/06 10:17:36;;;;;;;;;;;;;;;;;;4941064;28;20948;-64
2022/10/06 10:20:01;;;;;;;;;;;;;;;;;;4955218;28;19953;-62
2022/10/06 10:22:27;;;;;;;;;;;;;;;;;;4923615;28;21960;-62
2022/10/06 10:24:53;;;;;;;;;;;;;;;;;;4957366;28;20025;-63
2022/10/06 10:27:22;;;;;;;;;;;;;;;;;;4939271;28;20008;-62
2022/10/06 10:29:50;;;;;;;;;;;;;;;;;;4932126;28;20541;-62
2022/10/06 10:32:18;;;;;;;;;;;;;;;;;;4942491;28;19941;-66
2022/10/06 10:34:43;;;;;;;;;;;;;;;;;;4942881;28;19922;-63
2022/10/06 10:37:09;;;;;;;;;;;;;;;;;;4945168;28;19996;-63
2022/10/06 10:39:34;;;;;;;;;;;;;;;;;;4960791;28;20388;-62
2022/10/06 10:42:02;;;;;;;;;;;;;;;;;;4943088;28;19918;-64
2022/10/06 10:44:30;;;;;;;;;;;;;;;;;;4961019;28;19918;-64
2022/10/06 10:46:58;;;;;;;;;;;;;;;;;;4940567;28;19926;-61
2022/10/06 10:49:26;;;;;;;;;;;;;;;;;;4943793;28;19932;-61
2022/10/06 10:51:51;;;;;;;;;;;;;;;;;;4957448;28;19928;-65
2022/10/06 10:54:20;;;;;;;;;;;;;;;;;;4958708;28;19926;-61
2022/10/06 10:56:48;;;;;;;;;;;;;;;;;;4960670;28;19933;-63
2022/10/06 10:59:13;;;;;;;;;;;;;;;;;;4958927;28;19922;-66
2022/10/06 11:01:38;;;;;;;;;;;;;;;;;;4940490;28;19918;-61
2022/10/06 11:04:06;;;;;;;;;;;;;;;;;;4924018;28;19921;-62
2022/10/06 11:06:31;;;;;;;;;;;;;;;;;;4940084;28;19929;-62
2022/10/06 11:08:57;;;;;;;;;;;;;;;;;;4941362;28;20365;-65
2022/10/06 11:11:22;;;;;;;;;;;;;;;;;;4934718;28;19941;-64
2022/10/06 11:13:48;;;;;;;;;;;;;;;;;;4958940;28;21266;-64
2022/10/06 11:16:15;;;;;;;;;;;;;;;;;;4958781;28;19922;-66
2022/10/06 11:18:40;;;;;;;;;;;;;;;;;;4942230;28;19938;-64
2022/10/06 11:21:08;;;;;;;;;;;;;;;;;;4941962;28;21836;-63
2022/10/06 11:23:36;;;;;;;;;;;;;;;;;;4944494;28;19944;-63
2022/10/06 11:26:03;;;;;;;;;;;;;;;;;;4940154;28;19972;-61
2022/10/06 11:28:29;;;;;;;;;;;;;;;;;;4943044;28;20104;-61
2022/10/06 11:30:55;;;;;;;;;;;;;;;;;;4961202;28;20855;-65
2022/10/06 11:33:23;;;;;;;;;;;;;;;;;;4960956;28;19930;-64
2022/10/06 11:35:48;;;;;;;;;;;;;;;;;;4959224;28;19921;-61
2022/10/06 11:38:16;;;;;;;;;;;;;;;;;;4942433;28;19918;-63
2022/10/06 11:40:42;;;;;;;;;;;;;;;;;;4942150;28;19926;-61
2022/10/06 11:43:09;;;;;;;;;;;;;;;;;;4944249;28;20854;-64
2022/10/06 11:45:34;;;;;;;;;;;;;;;;;;4930112;28;19918;-64
2022/10/06 11:48:03;;;;;;;;;;;;;;;;;;4959347;28;19929;-62
2022/10/06 11:50:28;;;;;;;;;;;;;;;;;;4929442;28;19921;-62
2022/10/06 11:52:56;;;;;;;;;;;;;;;;;;4940553;28;21070;-63
2022/10/06 11:55:22;;;;;;;;;;;;;;;;;;4926776;28;19928;-62
2022/10/06 11:57:48;;;;;;;;;;;;;;;;;;4941511;28;19922;-62
2022/10/06 12:00:13;;;;;;;;;;;;;;;;;;4924281;28;19922;-62
2022/10/06 12:02:41;;;;;;;;;;;;;;;;;;4959697;28;19922;-63
2022/10/06 12:05:06;;;;;;;;;;;;;;;;;;4943131;28;19933;-62
2022/10/06 12:07:34;;;;;;;;;;;;;;;;;;4927757;28;19918;-63
2022/10/06 12:09:59;;;;;;;;;;;;;;;;;;4940739;28;19925;-61
2022/10/06 12:12:24;;;;;;;;;;;;;;;;;;4941799;28;20296;-62
2022/10/06 12:14:50;;;;;;;;;;;;;;;;;;4927873;28;20005;-63
2022/10/06 12:17:15;;;;;;;;;;;;;;;;;;4939349;28;19922;-61
2022/10/06 12:19:41;;;;;;;;;;;;;;;;;;4958010;28;19922;-61
2022/10/06 12:22:07;;;;;;;;;;;;;;;;;;4956322;28;19944;-62
2022/10/06 12:24:33;;;;;;;;;;;;;;;;;;4956887;28;19946;-62
2022/10/06 12:26:58;;;;;;;;;;;;;;;;;;4955431;28;19926;-62
2022/10/06 12:32:14;;;;;;;;;;;;;;;;;;4936644;28;19922;-63
2022/10/06 12:34:40;;;;;;;;;;;;;;;;;;4955383;28;20004;-62
2022/10/06 12:37:05;;;;;;;;;;;;;;;;;;4919010;28;19926;-60
2022/10/06 12:39:30;;;;;;;;;;;;;;;;;;4937453;28;19929;-62
2022/10/06 12:41:56;;;;;;;;;;;;;;;;;;4956505;28;19921;-62
2022/10/06 12:44:22;;;;;;;;;;;;;;;;;;4941457;28;19965;-61
2022/10/06 12:46:48;;;;;;;;;;;;;;;;;;4939419;28;20341;-67
2022/10/06 12:49:20;;;;;;;;;;;;;;;;;;4940106;28;19993;-61
2022/10/06 12:51:46;;;;;;;;;;;;;;;;;;4938357;28;20000;-62
2022/10/06 12:54:19;;;;;;;;;;;;;;;;;;4938901;28;20083;-65
2022/10/06 12:56:46;;;;;;;;;;;;;;;;;;4918570;28;20650;-63
2022/10/06 12:59:12;;;;;;;;;;;;;;;;;;4955975;28;19922;-60
2022/10/06 13:01:37;;;;;;;;;;;;;;;;;;4954593;28;19964;-61
2022/10/06 13:04:03;;;;;;;;;;;;;;;;;;4955708;28;20016;-61
2022/10/06 13:06:28;;;;;;;;;;;;;;;;;;4939470;28;19928;-61
2022/10/06 13:08:56;;;;;;;;;;;;;;;;;;4955180;28;19929;-61
2022/10/06 13:11:24;;;;;;;;;;;;;;;;;;4939581;28;19930;-62
2022/10/06 13:13:49;;;;;;;;;;;;;;;;;;4918318;28;19929;-63
2022/10/06 13:16:14;;;;;;;;;;;;;;;;;;4952622;28;20339;-60
2022/10/06 13:18:40;;;;;;;;;;;;;;;;;;4935399;28;19918;-62
2022/10/06 13:21:07;;;;;;;;;;;;;;;;;;4957033;28;19970;-62
2022/10/06 13:23:35;;;;;;;;;;;;;;;;;;4956070;28;20008;-61
2022/10/06 13:26:01;;;;;;;;;;;;;;;;;;4945888;28;19949;-60
2022/10/06 13:28:26;;;;;;;;;;;;;;;;;;4954862;28;19926;-63
2022/10/06 13:30:52;;;;;;;;;;;;;;;;;;4939439;28;19922;-63
2022/10/06 13:33:19;;;;;;;;;;;;;;;;;;4955689;28;20499;-64
2022/10/06 13:35:44;;;;;;;;;;;;;;;;;;4937497;28;19922;-64
2022/10/06 13:38:13;;;;;;;;;;;;;;;;;;4955347;28;19922;-62
2022/10/06 13:40:41;;;;;;;;;;;;;;;;;;4940232;28;20495;-63
2022/10/06 13:43:06;;;;;;;;;;;;;;;;;;4960800;28;20304;-64
2022/10/06 13:45:32;;;;;;;;;;;;;;;;;;4941357;28;20381;-60
2022/10/06 13:48:00;;;;;;;;;;;;;;;;;;4944491;28;21157;-63
2022/10/06 13:50:28;;;;;;;;;;;;;;;;;;4935359;28;19953;-62
2022/10/06 13:52:56;;;;;;;;;;;;;;;;;;4943625;28;20580;-64
2022/10/06 13:55:27;;;;;;;;;;;;;;;;;;4958846;28;19930;-62
2022/10/06 13:57:53;;;;;;;;;;;;;;;;;;4961168;28;20014;-62
2022/10/06 14:00:18;;;;;;;;;;;;;;;;;;4943323;28;20393;-63
2022/10/06 14:02:44;;;;;;;;;;;;;;;;;;4952671;28;19971;-64
2022/10/06 14:05:09;;;;;;;;;;;;;;;;;;4940741;28;20403;-64
2022/10/06 14:07:34;;;;;;;;;;;;;;;;;;4939209;28;19922;-63
2022/10/06 14:10:00;;;;;;;;;;;;;;;;;;4946845;28;21480;-64
2022/10/06 14:12:26;;;;;;;;;;;;;;;;;;4930347;28;19922;-64
2022/10/06 14:14:51;;;;;;;;;;;;;;;;;;4937592;28;20502;-66
2022/10/06 14:17:17;;;;;;;;;;;;;;;;;;4928092;28;20716;-66
2022/10/06 14:19:44;;;;;;;;;;;;;;;;;;4933019;28;19918;-66
2022/10/06 14:22:09;;;;;;;;;;;;;;;;;;4922993;28;19918;-65
2022/10/06 14:24:37;;;;;;;;;;;;;;;;;;4919874;28;19929;-66
2022/10/06 14:27:03;;;;;;;;;;;;;;;;;;4952128;28;19972;-67
2022/10/06 14:29:32;;;;;;;;;;;;;;;;;;4937910;28;19926;-64
2022/10/06 14:31:57;;;;;;;;;;;;;;;;;;4940671;28;19918;-64
2022/10/06 14:34:22;;;;;;;;;;;;;;;;;;4957175;28;21944;-64
2022/10/06 14:36:50;;;;;;;;;;;;;;;;;;4943324;28;20468;-65
2022/10/06 14:39:16;;;;;;;;;;;;;;;;;;4920806;28;19918;-64
2022/10/06 14:41:41;;;;;;;;;;;;;;;;;;4923852;28;20479;-64
2022/10/06 14:47:24;;;;;;;;;;;;;;;;;;4958133;28;21898;-64
2022/10/06 14:49:50;;;;;;;;;;;;;;;;;;4959533;28;19926;-63
2022/10/06 14:52:15;;;;;;;;;;;;;;;;;;4940102;28;19922;-64
2022/10/06 14:54:42;;;;;;;;;;;;;;;;;;4953974;28;20484;-63
2022/10/06 14:57:08;;;;;;;;;;;;;;;;;;4920737;28;19997;-63
2022/10/06 14:59:33;;;;;;;;;;;;;;;;;;4935189;28;19925;-62
2022/10/06 15:02:04;;;;;;;;;;;;;;;;;;4949299;28;19917;-63
2022/10/06 15:04:30;;;;;;;;;;;;;;;;;;4929918;28;19924;-64
2022/10/06 15:09:59;;;;;;;;;;;;;;;;;;4870410;29;19930;-63
2022/10/06 15:12:25;;;;;;;;;;;;;;;;;;4875193;29;19924;-62
2022/10/06 15:14:52;;;;;;;;;;;;;;;;;;4914692;28;20763;-63
2022/10/06 15:17:17;;;;;;;;;;;;;;;;;;4941996;28;19928;-66
2022/10/06 15:19:43;;;;;;;;;;;;;;;;;;4931937;28;20494;-63
2022/10/06 15:22:09;;;;;;;;;;;;;;;;;;4932329;28;19922;-63
2022/10/06 15:24:37;;;;;;;;;;;;;;;;;;4948761;28;19922;-66
2022/10/06 15:29:48;;;;;;;;;;;;;;;;;;4953771;28;19925;-64
2022/10/06 15:32:14;;;;;;;;;;;;;;;;;;4925068;28;19922;-64
2022/10/06 15:34:42;;;;;;;;;;;;;;;;;;4934417;28;20416;-64
2022/10/06 15:37:07;;;;;;;;;;;;;;;;;;4940648;28;19925;-63
2022/10/06 15:39:33;;;;;;;;;;;;;;;;;;4954971;28;19921;-64
2022/10/06 15:41:58;;;;;;;;;;;;;;;;;;4954643;28;21203;-63
2022/10/06 15:44:24;;;;;;;;;;;;;;;;;;4929884;28;19917;-62
2022/10/06 15:46:49;;;;;;;;;;;;;;;;;;4930367;28;20515;-62
2022/10/06 15:49:15;;;;;;;;;;;;;;;;;;4929155;28;20000;-62
2022/10/06 15:51:47;;;;;;;;;;;;;;;;;;4954379;28;20372;-63
2022/10/06 15:54:13;;;;;;;;;;;;;;;;;;4955608;28;20633;-64
2022/10/06 15:56:38;;;;;;;;;;;;;;;;;;4950964;28;19926;-62
2022/10/06 15:59:04;;;;;;;;;;;;;;;;;;4952772;28;19922;-62
2022/10/06 16:01:30;;;;;;;;;;;;;;;;;;4938173;28;19918;-62
2022/10/06 16:04:01;;;;;;;;;;;;;;;;;;4931893;28;19924;-63
2022/10/06 16:06:41;;;;;;;;;;;;;;;;;;4955835;28;21934;-63
2022/10/06 16:09:07;;;;;;;;;;;;;;;;;;4953776;28;19930;-63
2022/10/06 16:11:32;;;;;;;;;;;;;;;;;;4942049;28;19933;-63
2022/10/06 16:13:58;;;;;;;;;;;;;;;;;;4943033;28;19925;-67
2022/10/06 16:16:23;;;;;;;;;;;;;;;;;;4937675;28;20401;-63
2022/10/06 16:18:52;;;;;;;;;;;;;;;;;;4939604;28;20112;-63
2022/10/06 16:21:19;;;;;;;;;;;;;;;;;;4934203;28;19926;-62
2022/10/06 16:23:45;;;;;;;;;;;;;;;;;;4953268;28;19923;-58
2022/10/06 16:26:13;;;;;;;;;;;;;;;;;;4951245;28;19918;-60
2022/10/06 16:28:38;;;;;;;;;;;;;;;;;;4936859;28;19917;-58
2022/10/06 16:31:05;;;;;;;;;;;;;;;;;;4950980;28;19926;-59
2022/10/06 16:33:33;;;;;;;;;;;;;;;;;;4954555;28;19922;-59
2022/10/06 16:35:58;;;;;;;;;;;;;;;;;;4936693;28;19918;-59
2022/10/06 16:38:24;;;;;;;;;;;;;;;;;;4952040;28;19926;-59
2022/10/06 16:40:52;;;;;;;;;;;;;;;;;;4938429;28;19968;-59
2022/10/06 16:43:18;;;;;;;;;;;;;;;;;;4955753;28;20865;-60
2022/10/06 16:45:43;;;;;;;;;;;;;;;;;;4953828;28;19969;-59
2022/10/06 16:48:10;;;;;;;;;;;;;;;;;;4958380;28;19958;-59
2022/10/06 16:50:38;;;;;;;;;;;;;;;;;;4940629;28;19922;-59
2022/10/06 16:53:03;;;;;;;;;;;;;;;;;;4925691;28;19930;-59
2022/10/06 16:55:29;;;;;;;;;;;;;;;;;;4953719;28;19974;-59
2022/10/06 16:57:54;;;;;;;;;;;;;;;;;;4937437;28;19922;-58
2022/10/06 17:00:20;;;;;;;;;;;;;;;;;;4925034;28;19929;-59
2022/10/06 17:02:45;;;;;;;;;;;;;;;;;;4933518;28;19922;-59
2022/10/06 17:05:11;;;;;;;;;;;;;;;;;;4955497;28;19922;-58
2022/10/06 17:07:36;;;;;;;;;;;;;;;;;;4951467;28;20429;-59
2022/10/06 17:10:03;;;;;;;;;;;;;;;;;;4956758;28;19930;-59
2022/10/06 17:12:31;;;;;;;;;;;;;;;;;;4954920;28;19922;-58
2022/10/06 17:14:56;;;;;;;;;;;;;;;;;;4960596;28;19925;-60
2022/10/06 17:17:22;;;;;;;;;;;;;;;;;;4927927;28;19925;-60
2022/10/06 17:19:51;;;;;;;;;;;;;;;;;;4962036;28;19930;-60
2022/10/06 17:22:19;;;;;;;;;;;;;;;;;;4941473;28;19932;-59